SUMUSABE

Guest
Details From SUMU - Montevideo Carrasco Intl
To SABE - Aeroparque Jorge Newbery
Flight Number -
Tags Generated
Created
Modified
Stats Distance 119 nm / 221 km
Max Altitude 0 ft / 0 m
Waypoints 2
Social Downloads 1
Likes 0
Share VATSIM

Download

Looking for another format? Having issues loading an existing format? Contact us
Advertisement - Login to hide

Notes

Generated

Route

SUMU SABE

ID Type Via Altitude Latitude Longitude Leg Dist Tot Dist Heading (true) Name
O SUMU APT - 0 ft / 0 m -34.83742˚ -56.03572˚ - 0 nm - -
O SABE APT - 0 ft / 0 m -34.55416˚ -58.42526˚ 119 nm 119 nm 278° / 279° -

Altitude Profile

Advertisement - Login to hide

SUMU

Details ICAO SUMU (MVD)
Name Montevideo Carrasco Intl
Region Uruguay
Timezone America/Montevideo (UTC-3.0)
Stats Elevation 105 ft / 32 m (AMSL)
Location -34.834888° -56.027727°
Runways 3
Magnetic Variation 10.822° W

METAR

SUMU 180800Z 35005KT CAVOK 10/05 Q1022 NOSIG

Decode

TAF

TAF SUMU 180525Z 1806/1906 09006KT CAVOK TX24/1818Z TN12/1809Z BECMG 1813/1815 13015G25KT 9999 SCT026 BECMG 1900/1904 04010G20KT

Decode

Departure Runways

ID Width Length Bearing (true) Bearing (mag) Surface Threshold Offset Overrun Length
01 148 ft / 45 m 7,406 ft / 2,257 m 359.19° 10.01° Asphalt 300 ft / 91 m 195 ft / 59 m
06 148 ft / 45 m 10,497 ft / 3,199 m 53.24° 64.06° Asphalt 1,150 ft / 351 m 500 ft / 152 m
10 148 ft / 45 m 5,578 ft / 1,700 m 90.77° 101.59° Concrete 200 ft / 61 m 0 ft / 0 m
19 148 ft / 45 m 7,406 ft / 2,257 m 179.19° 190.01° Asphalt 300 ft / 91 m 190 ft / 58 m
24 148 ft / 45 m 10,497 ft / 3,199 m 233.23° 244.05° Asphalt 490 ft / 149 m 0 ft / 0 m
28 148 ft / 45 m 5,578 ft / 1,700 m 270.76° 281.58° Concrete 200 ft / 61 m 0 ft / 0 m

SABE

Details ICAO SABE (AEP)
Name Aeroparque Jorge Newbery
Region Argentina
Timezone Unknown (UTC+0.0)
Stats Elevation 17 ft / 5 m (AMSL)
Location -34.559414° -58.415749°
Runways 1
Magnetic Variation 8.982° W

METAR

SABE 180800Z 04009KT 010V070 9999 BKN041 17/08 Q1023

Decode

TAF

TAF SABE 180500Z 1806/1906 07015KT 9999 SCT040 TX25/1818Z TN15/1810Z BECMG 1808/1811 FEW025 BECMG 1813/1815 10010KT CAVOK BECMG 1818/1820 09015KT

Decode

Destination Runways

ID Width Length Bearing (true) Bearing (mag) Surface Threshold Offset Overrun Length
13 131 ft / 40 m 6,882 ft / 2,098 m 123.87° 132.85° Concrete 0 ft / 0 m 791 ft / 241 m
31 131 ft / 40 m 6,882 ft / 2,098 m 303.86° 312.84° Concrete 991 ft / 302 m 0 ft / 0 m

Approach Navaids

Runway Type Ident Frequency Range Bearing (true) Bearing (mag) Slope Elevation
13 Localiser AE 109.50 MHz 18 nm / 33 km 123.95° 132.94° - 17 ft / 5 m (AMSL)
13 Glidescope AE 109.50 MHz 10 nm / 19 km 124.47° 133.45° 3.00° 17 ft / 5 m (AMSL)
13 DME AE 109.50 MHz 18 nm / 33 km - - - 17 ft / 5 m (AMSL)

Popular Alternatives